Time;durP1;ratioP1;P1;durP2;ratioP2;P2;SDS_P1;SDS_P2;PMS_P1;PMS_P2;Temp;Humidity;BMP_temperature;BMP_pressure;BME280_temperature;BME280_humidity;BME280_pressure;Samples;Min_cycle;Max_cycle;Signal;HPM_P1;HPM_P2
2023/09/12 00:01:33;;;;;;;12.13;6.57;;;17.30;62.90;;;;;;4918449;29;20196;-75
2023/09/12 00:04:01;;;;;;;12.20;8.83;;;17.30;62.80;;;;;;4917562;29;20555;-75
2023/09/12 00:06:28;;;;;;;15.07;8.10;;;17.40;63.00;;;;;;4918595;29;20198;-76
2023/09/12 00:08:55;;;;;;;17.30;10.47;;;17.60;61.70;;;;;;4918096;29;20211;-75
2023/09/12 00:11:25;;;;;;;15.00;9.67;;;17.90;61.80;;;;;;4917859;29;20267;-75
2023/09/12 00:13:52;;;;;;;11.20;7.70;;;17.80;61.40;;;;;;4917374;29;20215;-75
2023/09/12 00:16:20;;;;;;;17.53;8.90;;;17.90;60.80;;;;;;4918503;29;20200;-75
2023/09/12 00:18:47;;;;;;;13.77;8.80;;;18.10;61.30;;;;;;4917633;29;20587;-76
2023/09/12 00:21:14;;;;;;;17.00;9.57;;;18.20;61.00;;;;;;4920973;29;20193;-74
2023/09/12 00:23:42;;;;;;;24.63;8.83;;;18.10;60.10;;;;;;4916663;29;20559;-76
2023/09/12 00:26:09;;;;;;;10.53;7.57;;;18.10;60.60;;;;;;4918092;29;20223;-74
2023/09/12 00:28:38;;;;;;;9.83;7.67;;;18.20;59.60;;;;;;4916831;29;20647;-73
2023/09/12 00:31:05;;;;;;;12.17;8.20;;;18.20;59.50;;;;;;4917484;29;20245;-75
2023/09/12 00:33:33;;;;;;;10.90;7.40;;;18.30;59.40;;;;;;4918098;29;20184;-75
2023/09/12 00:36:00;;;;;;;16.40;9.37;;;18.40;60.00;;;;;;4930783;29;20231;-77
2023/09/12 00:38:27;;;;;;;13.70;8.80;;;18.60;59.60;;;;;;4936777;29;20180;-75
2023/09/12 00:40:55;;;;;;;13.50;8.80;;;18.70;57.80;;;;;;4936538;29;20231;-76
2023/09/12 00:43:22;;;;;;;10.43;8.03;;;18.80;57.80;;;;;;4936823;29;20191;-72
2023/09/12 00:45:49;;;;;;;11.20;8.20;;;18.80;57.10;;;;;;4935798;29;20188;-77
2023/09/12 00:48:19;;;;;;;14.20;9.03;;;19.10;57.30;;;;;;4936577;29;20196;-77
2023/09/12 00:50:48;;;;;;;13.90;8.30;;;19.00;57.40;;;;;;4936145;29;20674;-76
2023/09/12 00:53:16;;;;;;;12.67;8.57;;;19.20;55.40;;;;;;4936427;29;20180;-75
2023/09/12 00:55:49;;;;;;;10.60;7.63;;;19.40;55.00;;;;;;4933572;29;20192;-76
2023/09/12 00:58:16;;;;;;;12.30;7.83;;;19.50;54.10;;;;;;4937120;29;20196;-77
2023/09/12 01:00:44;;;;;;;10.03;6.97;;;19.40;53.50;;;;;;4934083;29;20233;-75
2023/09/12 01:03:11;;;;;;;11.37;8.03;;;19.30;53.50;;;;;;4931281;29;20180;-76
2023/09/12 01:05:39;;;;;;;10.83;8.10;;;19.30;54.80;;;;;;4935206;29;20199;-76
2023/09/12 01:08:06;;;;;;;16.30;8.67;;;19.50;54.40;;;;;;4933648;29;20207;-76
2023/09/12 01:10:38;;;;;;;9.57;7.90;;;19.70;53.70;;;;;;4929103;29;20223;-76
2023/09/12 01:13:05;;;;;;;10.43;8.13;;;19.90;52.40;;;;;;4935820;29;20188;-76
2023/09/12 01:15:33;;;;;;;12.80;7.70;;;19.90;52.40;;;;;;4932751;29;20286;-74
2023/09/12 01:18:03;;;;;;;12.07;8.20;;;20.40;51.10;;;;;;4933884;29;20796;-72
2023/09/12 01:20:33;;;;;;;14.50;8.83;;;20.30;50.40;;;;;;4932834;29;20279;-76
2023/09/12 01:23:01;;;;;;;15.03;8.30;;;20.50;51.10;;;;;;4934377;29;20184;-73
2023/09/12 01:25:46;;;;;;;11.13;8.60;;;20.30;51.30;;;;;;4934156;29;20191;-74
2023/09/12 01:28:16;;;;;;;12.87;9.87;;;20.30;51.90;;;;;;4931145;29;20191;-76
2023/09/12 01:30:49;;;;;;;15.07;9.23;;;20.40;51.60;;;;;;4934807;29;20248;-75
2023/09/12 01:33:24;;;;;;;12.90;9.10;;;20.30;52.30;;;;;;4938433;29;20705;-76
2023/09/12 01:35:51;;;;;;;13.60;9.43;;;20.30;51.80;;;;;;4933800;29;20227;-76
2023/09/12 01:38:19;;;;;;;13.07;8.43;;;20.20;52.00;;;;;;4933549;29;20200;-76
2023/09/12 01:40:56;;;;;;;12.00;8.80;;;20.20;51.50;;;;;;4931391;29;20689;-75
2023/09/12 01:43:27;;;;;;;11.67;8.47;;;20.30;51.70;;;;;;4932337;29;20191;-75
2023/09/12 01:45:57;;;;;;;11.10;8.30;;;20.70;50.90;;;;;;4931578;29;20669;-74
2023/09/12 01:48:33;;;;;;;13.30;8.03;;;20.90;50.30;;;;;;4937260;29;20188;-76
2023/09/12 01:51:02;;;;;;;10.97;7.70;;;20.80;49.70;;;;;;4935614;29;20219;-73
2023/09/12 01:53:30;;;;;;;12.37;8.27;;;20.50;49.40;;;;;;4932840;29;20193;-73
2023/09/12 01:55:58;;;;;;;16.70;8.73;;;20.70;49.10;;;;;;4934211;29;20202;-75
2023/09/12 01:58:31;;;;;;;15.73;8.73;;;20.80;49.10;;;;;;4929488;29;20185;-74
2023/09/12 02:00:58;;;;;;;9.90;7.60;;;20.50;49.00;;;;;;4933255;29;20184;-76
2023/09/12 02:03:26;;;;;;;11.97;7.93;;;20.50;49.80;;;;;;4934551;29;20572;-73
2023/09/12 02:05:53;;;;;;;13.67;8.60;;;20.50;50.00;;;;;;4934758;29;20190;-75
2023/09/12 02:08:20;;;;;;;14.97;7.80;;;20.80;49.50;;;;;;4935791;29;20187;-75
2023/09/12 02:10:48;;;;;;;12.70;7.47;;;20.90;48.90;;;;;;4933418;29;20649;-74
2023/09/12 02:13:15;;;;;;;30.27;7.77;;;20.80;48.30;;;;;;4935740;29;20180;-75
2023/09/12 02:15:42;;;;;;;14.50;7.90;;;21.20;48.00;;;;;;4933190;29;20194;-74
2023/09/12 02:18:10;;;;;;;14.87;7.90;;;21.70;46.80;;;;;;4934563;29;20601;-74
2023/09/12 02:20:45;;;;;;;11.33;7.27;;;22.20;45.10;;;;;;4932479;29;20188;-74
2023/09/12 02:23:13;;;;;;;11.97;6.97;;;21.80;45.00;;;;;;4932635;29;20198;-74
2023/09/12 02:25:40;;;;;;;11.73;6.90;;;21.10;46.80;;;;;;4933199;29;21141;-75
2023/09/12 02:28:07;;;;;;;13.43;8.10;;;21.10;46.90;;;;;;4932538;29;20180;-76
2023/09/12 02:30:38;;;;;;;11.43;7.37;;;21.70;46.20;;;;;;4932233;29;20208;-76
2023/09/12 02:33:05;;;;;;;12.80;7.17;;;22.30;44.50;;;;;;4933862;29;20194;-77
2023/09/12 02:35:33;;;;;;;10.60;7.43;;;22.80;44.10;;;;;;4932202;29;20242;-76
2023/09/12 02:38:00;;;;;;;12.43;7.40;;;23.20;42.50;;;;;;4932839;29;20176;-75
2023/09/12 02:40:27;;;;;;;11.47;8.13;;;23.00;42.30;;;;;;4930316;29;20191;-74
2023/09/12 02:42:55;;;;;;;12.63;10.20;;;23.20;41.60;;;;;;4933666;29;20184;-74
2023/09/12 02:45:22;;;;;;;10.50;6.80;;;23.00;41.20;;;;;;4933616;29;20251;-76
2023/09/12 02:47:49;;;;;;;8.20;5.63;;;22.50;42.20;;;;;;4932190;29;20673;-75
2023/09/12 02:50:17;;;;;;;9.60;5.97;;;22.50;42.00;;;;;;4932182;29;20223;-76
2023/09/12 02:52:44;;;;;;;7.50;5.23;;;22.50;41.60;;;;;;4933882;29;20203;-74
2023/09/12 02:55:11;;;;;;;9.33;5.60;;;22.00;42.20;;;;;;4933440;29;20651;-75
2023/09/12 02:57:41;;;;;;;10.33;5.87;;;21.90;42.40;;;;;;4932183;29;20703;-75
2023/09/12 03:00:11;;;;;;;13.87;6.27;;;21.80;43.20;;;;;;4928090;29;20183;-75
2023/09/12 03:02:38;;;;;;;10.00;5.83;;;21.80;43.00;;;;;;4929674;29;20207;-75
2023/09/12 03:05:06;;;;;;;6.23;4.93;;;21.80;41.70;;;;;;4929934;29;20196;-72
2023/09/12 03:07:33;;;;;;;6.97;4.70;;;21.50;41.40;;;;;;4929898;29;20192;-75
2023/09/12 03:10:00;;;;;;;9.33;5.60;;;21.30;41.10;;;;;;4929517;29;20208;-75
2023/09/12 03:12:28;;;;;;;9.57;6.20;;;21.30;44.60;;;;;;4926623;29;20192;-75
2023/09/12 03:14:55;;;;;;;10.67;7.80;;;21.30;45.60;;;;;;4933182;29;20651;-76
2023/09/12 03:17:22;;;;;;;17.13;9.10;;;21.30;47.20;;;;;;4935280;29;20195;-74
2023/09/12 03:19:50;;;;;;;11.80;8.63;;;21.20;50.20;;;;;;4932868;29;20722;-76
2023/09/12 03:22:17;;;;;;;14.03;8.97;;;21.00;51.10;;;;;;4933714;29;21347;-76
2023/09/12 03:24:45;;;;;;;14.13;8.67;;;20.90;51.30;;;;;;4935324;29;20199;-76
2023/09/12 03:27:12;;;;;;;12.50;9.47;;;20.80;51.40;;;;;;4933202;29;20870;-74
2023/09/12 03:29:40;;;;;;;14.10;9.57;;;20.80;51.40;;;;;;4932815;29;20185;-75
2023/09/12 03:32:07;;;;;;;21.07;11.50;;;21.10;51.60;;;;;;4934071;29;20208;-75
2023/09/12 03:34:34;;;;;;;14.17;9.97;;;21.70;50.90;;;;;;4931759;29;20220;-75
2023/09/12 03:37:02;;;;;;;11.37;7.80;;;22.30;49.60;;;;;;4930933;29;20200;-76
2023/09/12 03:39:29;;;;;;;13.00;7.20;;;22.40;47.90;;;;;;4933476;29;20184;-74
2023/09/12 03:41:56;;;;;;;11.33;8.53;;;22.00;48.00;;;;;;4933138;29;20763;-75
2023/09/12 03:44:24;;;;;;;12.40;7.63;;;21.90;48.40;;;;;;4933504;29;20184;-76
2023/09/12 03:46:51;;;;;;;11.77;8.37;;;22.10;48.50;;;;;;4932830;29;20195;-73
2023/09/12 03:49:21;;;;;;;16.93;9.80;;;22.00;49.90;;;;;;4933020;29;20212;-74
2023/09/12 03:51:49;;;;;;;17.70;9.90;;;21.80;50.60;;;;;;4932330;29;20258;-75
2023/09/12 03:54:16;;;;;;;18.27;9.97;;;21.40;51.10;;;;;;4931776;29;20639;-76
2023/09/12 03:56:43;;;;;;;15.93;9.53;;;21.20;52.40;;;;;;4931585;29;20220;-74
2023/09/12 03:59:11;;;;;;;15.57;10.10;;;21.10;52.70;;;;;;4932980;29;20196;-75
2023/09/12 04:01:39;;;;;;;17.30;9.90;;;21.00;52.30;;;;;;4935437;29;20686;-73
2023/09/12 04:04:06;;;;;;;17.90;9.80;;;21.00;52.20;;;;;;4934467;29;20252;-75
2023/09/12 04:06:33;;;;;;;14.83;9.67;;;20.90;52.90;;;;;;4932410;29;20188;-75
2023/09/12 04:09:01;;;;;;;14.40;9.07;;;20.60;53.20;;;;;;4936556;29;20203;-75
2023/09/12 04:11:29;;;;;;;16.23;9.90;;;20.30;54.30;;;;;;4936531;29;20225;-75
2023/09/12 04:13:56;;;;;;;16.83;10.10;;;20.30;54.60;;;;;;4936546;29;20203;-75
2023/09/12 04:16:28;;;;;;;17.87;9.90;;;20.20;55.00;;;;;;4935195;29;21143;-75
2023/09/12 04:18:56;;;;;;;15.37;10.23;;;20.20;56.30;;;;;;4935983;29;20555;-75
2023/09/12 04:21:23;;;;;;;17.03;10.20;;;20.00;56.90;;;;;;4936399;29;20279;-74
2023/09/12 04:23:50;;;;;;;14.40;9.93;;;20.10;56.70;;;;;;4937663;29;20184;-75
2023/09/12 04:26:17;;;;;;;20.33;11.00;;;19.80;56.90;;;;;;4936709;29;20718;-75
2023/09/12 04:28:46;;;;;;;14.23;10.53;;;19.90;57.50;;;;;;4933757;29;20274;-76
2023/09/12 04:31:14;;;;;;;15.63;9.90;;;20.00;56.00;;;;;;4931356;29;20310;-75
2023/09/12 04:33:41;;;;;;;15.27;9.90;;;20.00;56.10;;;;;;4938160;29;20196;-75
2023/09/12 04:36:12;;;;;;;16.63;10.00;;;20.10;55.60;;;;;;4933259;29;20223;-76
2023/09/12 04:38:39;;;;;;;17.30;10.70;;;20.00;55.70;;;;;;4918939;29;20252;-75
2023/09/12 04:41:07;;;;;;;21.63;10.67;;;20.00;56.50;;;;;;4936066;29;20202;-77
2023/09/12 04:43:34;;;;;;;13.83;10.20;;;20.00;56.80;;;;;;4935825;29;20184;-76
2023/09/12 04:46:02;;;;;;;17.40;10.43;;;20.00;56.50;;;;;;4932053;29;20192;-75
2023/09/12 04:48:29;;;;;;;17.20;11.57;;;20.00;56.70;;;;;;4936054;29;20554;-75
2023/09/12 04:50:56;;;;;;;21.13;11.10;;;20.10;57.00;;;;;;4937423;29;20223;-76
2023/09/12 04:53:24;;;;;;;16.17;10.60;;;20.30;56.70;;;;;;4936255;29;20184;-74
2023/09/12 04:55:54;;;;;;;17.13;10.33;;;20.30;56.60;;;;;;4932341;29;20184;-77
2023/09/12 04:58:21;;;;;;;23.53;11.50;;;20.30;57.00;;;;;;4934915;29;20200;-74
2023/09/12 05:00:49;;;;;;;17.00;10.60;;;20.40;56.70;;;;;;4934745;29;20623;-74
2023/09/12 05:03:16;;;;;;;16.83;10.60;;;20.50;56.60;;;;;;4938239;29;20282;-76
2023/09/12 05:05:47;;;;;;;20.40;11.30;;;20.50;56.30;;;;;;4931256;29;20211;-74
2023/09/12 05:08:15;;;;;;;13.93;11.03;;;20.80;55.60;;;;;;4933880;29;20188;-74
2023/09/12 05:10:44;;;;;;;12.90;9.67;;;21.60;54.10;;;;;;4931425;29;21743;-76
2023/09/12 05:13:11;;;;;;;15.17;9.37;;;22.30;52.20;;;;;;4934346;29;20191;-74
2023/09/12 05:15:41;;;;;;;16.83;9.90;;;22.80;51.10;;;;;;4917832;29;20196;-74
2023/09/12 05:18:08;;;;;;;17.43;10.33;;;23.00;49.10;;;;;;4938315;29;20196;-75
2023/09/12 05:20:36;;;;;;;13.77;10.07;;;22.00;51.60;;;;;;4932991;29;20585;-75
2023/09/12 05:23:03;;;;;;;16.80;9.77;;;21.70;52.30;;;;;;4935276;29;20188;-75
2023/09/12 05:25:31;;;;;;;13.63;9.30;;;21.40;53.40;;;;;;4934005;29;20677;-74
2023/09/12 05:27:58;;;;;;;14.27;9.60;;;21.20;54.00;;;;;;4934076;29;20199;-75
2023/09/12 05:30:25;;;;;;;12.70;9.30;;;21.30;53.40;;;;;;4933982;29;20673;-75
2023/09/12 05:32:53;;;;;;;18.33;10.13;;;21.90;51.80;;;;;;4928796;29;20273;-74
2023/09/12 05:35:21;;;;;;;16.57;9.43;;;21.80;51.80;;;;;;4930846;29;20367;-75
2023/09/12 05:37:48;;;;;;;15.07;9.23;;;22.10;51.30;;;;;;4934930;29;20180;-75
2023/09/12 05:40:15;;;;;;;16.67;9.40;;;21.80;52.70;;;;;;4934880;29;20266;-74
2023/09/12 05:42:43;;;;;;;15.40;9.33;;;21.30;53.30;;;;;;4934047;29;20194;-75
2023/09/12 05:45:10;;;;;;;15.60;9.57;;;21.30;53.60;;;;;;4934169;29;20671;-75
2023/09/12 05:47:38;;;;;;;13.83;9.20;;;21.60;53.00;;;;;;4935188;29;20184;-75
2023/09/12 05:50:06;;;;;;;17.57;9.20;;;21.70;53.40;;;;;;4934656;29;20219;-75
2023/09/12 05:52:34;;;;;;;17.47;9.17;;;21.80;53.00;;;;;;4934537;29;20188;-75
2023/09/12 05:55:01;;;;;;;15.53;10.00;;;21.70;53.20;;;;;;4934718;29;20277;-75
2023/09/12 05:57:29;;;;;;;16.53;9.03;;;21.60;54.20;;;;;;4932308;29;20180;-74
2023/09/12 05:59:56;;;;;;;12.37;9.10;;;21.60;53.90;;;;;;4930625;29;20751;-75
2023/09/12 06:02:23;;;;;;;16.13;9.83;;;21.50;53.60;;;;;;4935302;29;20303;-74
2023/09/12 06:04:51;;;;;;;16.27;9.50;;;21.70;53.30;;;;;;4934330;29;20195;-74
2023/09/12 06:07:19;;;;;;;12.90;9.57;;;21.10;54.20;;;;;;4934194;29;20196;-75
2023/09/12 06:09:47;;;;;;;13.70;9.77;;;20.70;55.70;;;;;;4930638;29;20219;-75
2023/09/12 06:12:14;;;;;;;11.47;9.13;;;20.20;57.70;;;;;;4927138;29;20611;-75
2023/09/12 06:14:41;;;;;;;11.17;8.40;;;20.00;58.20;;;;;;4933149;29;20202;-76
2023/09/12 06:17:09;;;;;;;11.43;8.90;;;20.20;58.50;;;;;;4932427;29;20194;-74
2023/09/12 06:19:36;;;;;;;13.00;8.73;;;20.30;57.40;;;;;;4931555;29;20181;-73
2023/09/12 06:22:03;;;;;;;12.03;9.10;;;20.50;56.80;;;;;;4932999;29;20222;-74
2023/09/12 06:24:31;;;;;;;14.10;8.80;;;20.30;57.60;;;;;;4933266;29;20235;-76
2023/09/12 06:26:58;;;;;;;12.53;8.20;;;20.30;58.10;;;;;;4931404;29;20187;-74
2023/09/12 06:29:25;;;;;;;12.73;8.07;;;20.50;57.20;;;;;;4929390;29;20187;-73
2023/09/12 06:31:54;;;;;;;12.90;8.20;;;20.10;57.60;;;;;;4932326;29;20228;-75
2023/09/12 06:34:22;;;;;;;13.57;8.07;;;19.90;58.10;;;;;;4930987;29;20189;-74
2023/09/12 06:36:49;;;;;;;17.07;9.53;;;20.00;57.80;;;;;;4933353;29;20609;-73
2023/09/12 06:39:16;;;;;;;11.57;8.33;;;19.60;59.50;;;;;;4932105;29;20183;-74
2023/09/12 06:41:43;;;;;;;11.00;7.83;;;19.20;59.90;;;;;;4932074;29;20243;-75
2023/09/12 06:44:11;;;;;;;12.07;7.60;;;19.20;59.20;;;;;;4928311;29;20255;-72
2023/09/12 06:46:38;;;;;;;10.57;7.70;;;19.80;58.60;;;;;;4928899;29;20554;-73
2023/09/12 06:49:06;;;;;;;10.53;8.23;;;19.60;58.70;;;;;;4932802;29;20196;-73
2023/09/12 06:51:33;;;;;;;10.63;7.80;;;20.10;57.40;;;;;;4930062;29;20224;-74
2023/09/12 06:54:01;;;;;;;16.30;8.37;;;20.30;57.30;;;;;;4930293;29;20717;-76
2023/09/12 06:56:28;;;;;;;12.07;7.67;;;20.40;57.60;;;;;;4931509;29;20184;-75
2023/09/12 06:58:55;;;;;;;12.47;7.17;;;20.70;56.30;;;;;;4931246;29;20186;-74
2023/09/12 07:01:23;;;;;;;15.63;8.50;;;20.60;56.80;;;;;;4928911;29;20188;-75
2023/09/12 07:03:53;;;;;;;9.13;6.63;;;20.60;56.60;;;;;;4933320;29;20191;-72
2023/09/12 07:06:21;;;;;;;10.10;7.73;;;20.30;57.30;;;;;;4933004;29;20586;-75
2023/09/12 07:08:48;;;;;;;14.13;7.87;;;20.00;58.30;;;;;;4930815;29;20192;-75
2023/09/12 07:11:16;;;;;;;13.17;8.87;;;19.60;60.00;;;;;;4933789;29;20227;-73
2023/09/12 07:13:43;;;;;;;11.93;7.20;;;19.30;60.50;;;;;;4930548;29;20180;-72
2023/09/12 07:16:10;;;;;;;10.60;7.77;;;18.80;62.40;;;;;;4932172;29;20219;-75
2023/09/12 07:18:38;;;;;;;11.30;7.57;;;18.50;63.40;;;;;;4934162;29;20735;-74
2023/09/12 07:21:06;;;;;;;12.53;8.40;;;18.30;64.30;;;;;;4932620;29;20194;-75
2023/09/12 07:23:34;;;;;;;11.40;7.07;;;18.10;65.50;;;;;;4932233;29;20211;-75
2023/09/12 07:26:02;;;;;;;10.60;7.97;;;17.90;66.00;;;;;;4933316;29;20358;-75
2023/09/12 07:28:31;;;;;;;10.07;7.70;;;17.80;66.40;;;;;;4932732;29;20233;-73
2023/09/12 07:30:59;;;;;;;11.00;8.00;;;17.70;66.80;;;;;;4933317;29;20212;-73
2023/09/12 07:33:26;;;;;;;11.57;7.90;;;17.70;67.10;;;;;;4933362;29;20675;-74
2023/09/12 07:35:54;;;;;;;10.20;7.97;;;17.60;67.30;;;;;;4935592;29;20698;-75
2023/09/12 07:38:22;;;;;;;9.97;7.67;;;17.50;67.30;;;;;;4935651;29;20235;-74
2023/09/12 07:40:50;;;;;;;12.43;8.33;;;17.50;67.70;;;;;;4933180;29;20686;-74
2023/09/12 07:43:17;;;;;;;12.30;8.53;;;17.50;67.80;;;;;;4935637;29;20191;-74
2023/09/12 07:45:58;;;;;;;11.63;7.93;;;17.40;67.70;;;;;;4934298;29;20200;-77
2023/09/12 07:48:25;;;;;;;13.57;8.50;;;17.30;67.90;;;;;;4936308;29;20743;-76
2023/09/12 07:50:52;;;;;;;10.67;7.50;;;17.20;68.00;;;;;;4932847;29;20294;-75
2023/09/12 07:53:20;;;;;;;12.50;7.80;;;17.20;67.90;;;;;;4933013;29;20184;-75
2023/09/12 07:55:48;;;;;;;12.27;8.03;;;17.10;68.10;;;;;;4934759;29;20334;-74
2023/09/12 07:58:19;;;;;;;13.77;9.43;;;17.00;68.30;;;;;;4936797;29;20199;-76
2023/09/12 08:00:49;;;;;;;17.20;8.13;;;17.00;68.60;;;;;;4933814;29;21057;-75
2023/09/12 08:03:18;;;;;;;13.70;8.13;;;17.00;68.80;;;;;;4933599;29;20265;-74
2023/09/12 08:05:54;;;;;;;9.53;7.63;;;16.80;68.70;;;;;;4934761;29;20187;-74
2023/09/12 08:08:22;;;;;;;11.53;7.90;;;16.80;68.80;;;;;;4937003;29;20191;-72
2023/09/12 08:10:49;;;;;;;13.80;7.43;;;16.70;68.90;;;;;;4930153;29;20328;-74
2023/09/12 08:13:16;;;;;;;10.73;7.27;;;16.70;69.30;;;;;;4921515;29;20190;-74
2023/09/12 08:15:44;;;;;;;12.37;7.73;;;16.70;69.60;;;;;;4930624;29;20190;-75
2023/09/12 08:18:12;;;;;;;12.83;7.60;;;16.60;69.90;;;;;;4934885;29;20207;-75
2023/09/12 08:20:39;;;;;;;9.47;7.97;;;16.60;70.20;;;;;;4938235;29;20191;-73
2023/09/12 08:23:07;;;;;;;11.10;6.77;;;16.50;70.60;;;;;;4932378;29;20310;-74
2023/09/12 08:25:34;;;;;;;12.30;7.50;;;16.50;70.80;;;;;;4936719;29;20198;-75
2023/09/12 08:28:02;;;;;;;16.90;7.87;;;16.50;71.00;;;;;;4931800;29;20202;-76
2023/09/12 08:30:29;;;;;;;11.47;7.90;;;16.40;71.30;;;;;;4935303;29;20211;-76
2023/09/12 08:32:57;;;;;;;13.23;8.37;;;16.40;71.50;;;;;;4936226;29;20186;-75
2023/09/12 08:35:26;;;;;;;12.30;7.30;;;16.40;71.70;;;;;;4935981;29;20228;-76
2023/09/12 08:37:54;;;;;;;12.37;7.90;;;16.40;71.80;;;;;;4937274;29;20252;-76
2023/09/12 08:40:23;;;;;;;9.70;8.30;;;16.40;72.00;;;;;;4940672;29;20261;-76
2023/09/12 08:42:53;;;;;;;10.30;7.50;;;16.40;71.90;;;;;;4932204;29;20183;-75
2023/09/12 08:45:21;;;;;;;12.67;7.63;;;16.50;71.70;;;;;;4930585;29;20287;-75
2023/09/12 08:47:53;;;;;;;12.93;7.53;;;16.40;71.70;;;;;;4934480;29;20204;-75
2023/09/12 08:50:23;;;;;;;10.83;7.60;;;16.50;71.70;;;;;;4937454;29;20607;-77
2023/09/12 08:52:51;;;;;;;10.67;7.47;;;16.50;71.60;;;;;;4931818;29;20631;-74
2023/09/12 08:55:18;;;;;;;11.43;7.30;;;16.50;71.60;;;;;;4934033;29;20282;-76
2023/09/12 08:57:51;;;;;;;12.93;7.90;;;16.50;71.70;;;;;;4935839;29;20226;-75
2023/09/12 09:00:23;;;;;;;12.70;7.77;;;16.50;71.80;;;;;;4934165;29;20208;-75
2023/09/12 09:02:50;;;;;;;10.77;7.40;;;16.40;72.00;;;;;;4933237;29;20286;-75
2023/09/12 09:05:19;;;;;;;12.57;7.47;;;16.30;72.30;;;;;;4934125;29;20274;-76
2023/09/12 09:07:47;;;;;;;15.10;7.57;;;16.30;72.60;;;;;;4933548;29;20216;-74
2023/09/12 09:10:22;;;;;;;10.30;7.07;;;16.30;73.20;;;;;;4928560;29;20248;-76
2023/09/12 09:12:50;;;;;;;11.93;6.90;;;16.30;73.50;;;;;;4918453;29;20201;-76
2023/09/12 09:15:27;;;;;;;14.90;7.37;;;16.20;73.70;;;;;;4920419;29;20187;-76
2023/09/12 09:18:03;;;;;;;12.50;7.80;;;16.20;73.90;;;;;;4925747;29;20192;-76
2023/09/12 09:20:34;;;;;;;9.87;6.97;;;16.20;74.20;;;;;;4930620;29;20190;-75
2023/09/12 09:23:05;;;;;;;13.03;7.70;;;16.10;74.30;;;;;;4932290;29;20194;-74
2023/09/12 09:25:51;;;;;;;11.07;7.23;;;16.10;74.60;;;;;;4934622;29;20277;-76
2023/09/12 09:28:23;;;;;;;13.13;7.37;;;16.00;74.70;;;;;;4918104;29;20242;-76
2023/09/12 09:30:54;;;;;;;12.30;7.47;;;16.00;74.80;;;;;;4925138;29;20296;-76
2023/09/12 09:33:22;;;;;;;13.30;7.33;;;16.00;75.00;;;;;;4924624;29;20246;-75
2023/09/12 09:35:51;;;;;;;11.47;7.60;;;16.00;75.20;;;;;;4920480;29;20219;-77
2023/09/12 09:38:20;;;;;;;11.40;7.33;;;15.90;75.20;;;;;;4932160;29;20267;-76
2023/09/12 09:40:48;;;;;;;11.07;8.00;;;15.90;75.40;;;;;;4926812;29;20671;-76
2023/09/12 09:43:21;;;;;;;14.87;8.63;;;15.90;75.70;;;;;;4925291;29;20281;-75
2023/09/12 09:45:48;;;;;;;17.23;7.87;;;15.80;75.80;;;;;;4921795;29;20202;-75
2023/09/12 09:48:24;;;;;;;12.87;7.60;;;15.80;75.90;;;;;;4919461;29;20719;-76
2023/09/12 09:50:52;;;;;;;13.70;7.53;;;15.80;76.00;;;;;;4933823;29;20279;-76
2023/09/12 09:53:32;;;;;;;11.13;7.40;;;15.80;76.10;;;;;;4931001;29;20629;-76
2023/09/12 09:56:17;;;;;;;11.63;7.37;;;15.80;76.00;;;;;;4930883;29;20694;-76
2023/09/12 09:58:49;;;;;;;15.10;7.07;;;15.80;76.30;;;;;;4931489;29;20182;-74
2023/09/12 10:01:29;;;;;;;14.10;7.23;;;15.80;76.40;;;;;;4930798;29;20610;-77
2023/09/12 10:04:04;;;;;;;14.73;7.80;;;15.80;76.50;;;;;;4933286;29;20553;-76
2023/09/12 10:06:36;;;;;;;14.33;7.90;;;15.80;76.60;;;;;;4932924;29;20238;-73
2023/09/12 10:09:15;;;;;;;18.70;8.03;;;15.80;76.70;;;;;;4913980;29;20649;-75
2023/09/12 10:11:47;;;;;;;14.03;9.70;;;15.70;77.00;;;;;;4933162;29;20415;-76
2023/09/12 10:14:18;;;;;;;18.90;13.60;;;15.70;77.00;;;;;;4935345;29;20219;-75
2023/09/12 10:16:51;;;;;;;16.53;12.00;;;15.70;77.20;;;;;;4932166;29;20187;-76
2023/09/12 10:19:30;;;;;;;14.73;8.90;;;15.60;77.20;;;;;;4933561;29;20630;-77
2023/09/12 10:22:28;;;;;;;15.17;8.67;;;15.60;77.40;;;;;;4931076;29;20200;-77
2023/09/12 10:24:58;;;;;;;16.23;8.10;;;15.60;77.60;;;;;;4934871;29;20187;-75
2023/09/12 10:27:29;;;;;;;13.30;8.10;;;15.60;77.70;;;;;;4930271;29;20190;-75
2023/09/12 10:29:59;;;;;;;14.47;8.63;;;15.50;77.70;;;;;;4933369;29;20239;-76
2023/09/12 10:32:30;;;;;;;14.27;7.80;;;15.50;77.90;;;;;;4932798;29;20188;-76
2023/09/12 10:35:00;;;;;;;16.53;8.27;;;15.50;78.20;;;;;;4933768;29;20294;-77
2023/09/12 10:37:29;;;;;;;9.60;7.80;;;15.50;78.30;;;;;;4929150;29;20202;-76
2023/09/12 10:39:57;;;;;;;15.43;8.80;;;15.50;78.40;;;;;;4929896;29;20187;-77
2023/09/12 10:42:28;;;;;;;18.13;9.13;;;15.40;78.50;;;;;;4922839;29;20189;-75
2023/09/12 10:44:58;;;;;;;14.80;9.13;;;15.40;78.60;;;;;;4932649;29;20183;-77
2023/09/12 10:47:26;;;;;;;13.00;9.00;;;15.40;78.70;;;;;;4933129;29;20882;-75
2023/09/12 10:49:57;;;;;;;18.60;8.90;;;15.40;78.70;;;;;;4934010;29;20646;-77
2023/09/12 10:52:28;;;;;;;18.80;8.73;;;15.40;79.00;;;;;;4931286;29;20192;-76
2023/09/12 10:54:56;;;;;;;15.03;9.97;;;15.30;78.80;;;;;;4929456;29;20194;-76
2023/09/12 10:57:24;;;;;;;11.63;9.30;;;15.40;79.00;;;;;;4928676;29;20180;-76
2023/09/12 11:00:12;;;;;;;25.70;10.87;;;15.30;78.90;;;;;;4929402;29;20254;-78
2023/09/12 11:02:41;;;;;;;21.10;11.57;;;15.20;79.00;;;;;;4926632;29;20188;-77
2023/09/12 11:05:33;;;;;;;36.50;15.50;;;15.20;79.50;;;;;;4924444;29;20586;-76
2023/09/12 11:08:04;;;;;;;32.70;13.47;;;15.10;79.90;;;;;;4917819;29;20860;-76
2023/09/12 11:10:34;;;;;;;19.93;11.23;;;15.00;79.80;;;;;;4924743;29;20656;-75
2023/09/12 11:13:01;;;;;;;19.53;9.93;;;15.00;80.00;;;;;;4919971;29;20275;-76
2023/09/12 11:15:31;;;;;;;15.13;10.40;;;14.90;80.00;;;;;;4924389;29;20180;-77
2023/09/12 11:18:06;;;;;;;14.50;10.63;;;14.90;80.10;;;;;;4919421;29;20191;-76
2023/09/12 11:20:53;;;;;;;19.73;10.80;;;14.80;80.40;;;;;;4922295;29;20273;-78
2023/09/12 11:23:23;;;;;;;20.70;10.97;;;14.80;80.60;;;;;;4923703;29;20190;-77
2023/09/12 11:26:05;;;;;;;13.37;9.33;;;14.80;80.70;;;;;;4922087;29;20205;-76
2023/09/12 11:28:33;;;;;;;20.80;10.43;;;14.80;80.80;;;;;;4934119;29;20184;-77
2023/09/12 11:31:00;;;;;;;12.83;10.47;;;14.70;81.00;;;;;;4931238;29;20884;-78
2023/09/12 11:33:28;;;;;;;14.93;10.77;;;14.70;81.00;;;;;;4928914;29;20614;-77
2023/09/12 11:36:01;;;;;;;21.43;11.90;;;14.70;81.10;;;;;;4928524;29;20219;-76
2023/09/12 11:38:30;;;;;;;17.13;11.30;;;14.60;81.10;;;;;;4923546;29;20185;-76
2023/09/12 11:41:00;;;;;;;18.93;11.37;;;14.60;81.20;;;;;;4926374;29;20200;-77
2023/09/12 11:43:28;;;;;;;12.53;8.67;;;14.60;81.30;;;;;;4933715;29;20255;-75
2023/09/12 11:45:57;;;;;;;19.37;12.53;;;14.60;81.40;;;;;;4929826;29;20184;-76
2023/09/12 11:48:24;;;;;;;18.13;11.27;;;14.50;81.60;;;;;;4925162;29;20187;-76
2023/09/12 11:50:57;;;;;;;19.73;12.63;;;14.50;81.70;;;;;;4931361;29;20276;-78
2023/09/12 11:53:29;;;;;;;17.30;11.83;;;14.50;81.80;;;;;;4921606;29;20189;-76
2023/09/12 11:56:00;;;;;;;23.73;13.03;;;14.50;81.90;;;;;;4921915;29;20191;-76
2023/09/12 11:58:28;;;;;;;26.87;13.07;;;14.50;82.00;;;;;;4929271;29;20294;-77
2023/09/12 12:00:58;;;;;;;17.20;12.43;;;14.50;82.20;;;;;;4934919;29;20191;-76
2023/09/12 12:03:27;;;;;;;19.83;13.07;;;14.40;81.90;;;;;;4928934;29;20195;-77
2023/09/12 12:05:58;;;;;;;19.60;13.43;;;14.30;81.70;;;;;;4932973;29;21164;-76
2023/09/12 12:08:26;;;;;;;19.27;12.50;;;14.20;81.70;;;;;;4932552;29;20192;-78
2023/09/12 12:10:58;;;;;;;19.87;12.57;;;14.20;82.30;;;;;;4930531;29;20802;-77
2023/09/12 12:13:27;;;;;;;18.20;12.47;;;14.20;82.40;;;;;;4931816;29;20265;-75
2023/09/12 12:15:55;;;;;;;20.03;12.13;;;14.10;82.60;;;;;;4931342;29;20200;-78
2023/09/12 12:18:23;;;;;;;16.50;12.10;;;14.10;82.60;;;;;;4925404;29;20189;-77
2023/09/12 12:20:50;;;;;;;16.83;13.07;;;14.00;82.70;;;;;;4925093;29;20195;-76
2023/09/12 12:23:18;;;;;;;21.47;13.10;;;14.00;82.60;;;;;;4930476;29;20187;-76
2023/09/12 12:25:45;;;;;;;17.30;13.03;;;13.90;82.90;;;;;;4936083;29;20199;-77
2023/09/12 12:28:12;;;;;;;18.00;12.57;;;13.80;82.90;;;;;;4935588;29;20214;-77
2023/09/12 12:30:43;;;;;;;19.77;12.87;;;13.80;83.20;;;;;;4935681;29;20626;-76
2023/09/12 12:33:11;;;;;;;16.70;13.40;;;13.70;83.60;;;;;;4935584;29;20248;-76
2023/09/12 12:35:38;;;;;;;21.17;14.90;;;13.70;83.60;;;;;;4935113;29;20242;-77
2023/09/12 12:38:06;;;;;;;18.50;14.37;;;13.70;83.90;;;;;;4928373;29;20223;-76
2023/09/12 12:40:37;;;;;;;23.57;14.43;;;13.70;84.30;;;;;;4923932;29;20272;-76
2023/09/12 12:43:06;;;;;;;18.70;13.90;;;13.70;84.20;;;;;;4922367;29;20344;-78
2023/09/12 12:45:33;;;;;;;18.13;13.67;;;13.70;84.40;;;;;;4925610;29;20196;-76